Time;durP1;ratioP1;P1;durP2;ratioP2;P2;SDS_P1;SDS_P2;PMS_P1;PMS_P2;Temp;Humidity;BMP_temperature;BMP_pressure;BME280_temperature;BME280_humidity;BME280_pressure;Samples;Min_cycle;Max_cycle;Signal;HPM_P1;HPM_P2
2022/01/23 00:00:34;;;;;;;38.90;23.27;;;5.60;99.90;;;;;;4967184;28;20390;-83
2022/01/23 00:03:02;;;;;;;34.67;23.23;;;5.60;99.90;;;;;;4947791;28;20807;-83
2022/01/23 00:05:34;;;;;;;33.97;22.50;;;5.60;99.90;;;;;;4963953;28;20405;-83
2022/01/23 00:08:00;;;;;;;39.95;23.27;;;5.60;99.90;;;;;;4945174;28;20460;-84
2022/01/23 00:10:26;;;;;;;31.55;20.95;;;5.60;99.90;;;;;;4948536;28;20383;-84
2022/01/23 00:13:06;;;;;;;30.27;20.95;;;5.60;99.90;;;;;;4964724;28;20415;-84
2022/01/23 00:18:15;;;;;;;31.15;20.80;;;5.70;99.90;;;;;;4967482;28;20409;-83
2022/01/23 00:20:41;;;;;;;31.90;21.40;;;5.80;99.90;;;;;;4949254;28;20830;-83
2022/01/23 00:23:27;;;;;;;31.67;20.80;;;5.80;99.90;;;;;;4949207;28;20399;-83
2022/01/23 00:31:26;;;;;;;28.70;18.42;;;5.80;99.90;;;;;;4965029;28;20398;-84
2022/01/23 00:33:54;;;;;;;30.15;18.38;;;5.80;99.90;;;;;;4965963;28;20861;-84
2022/01/23 00:36:23;;;;;;;26.40;18.17;;;5.80;99.90;;;;;;4947414;28;20402;-83
2022/01/23 00:38:48;;;;;;;27.30;18.73;;;5.80;99.90;;;;;;4950013;28;20407;-83
2022/01/23 00:41:14;;;;;;;26.30;18.48;;;5.70;99.90;;;;;;4948897;28;20460;-83
2022/01/23 00:43:42;;;;;;;24.30;16.83;;;5.80;99.90;;;;;;4969564;28;20732;-83
2022/01/23 00:46:21;;;;;;;27.77;17.50;;;5.80;99.90;;;;;;4965712;28;20395;-83
2022/01/23 00:51:26;;;;;;;25.73;16.85;;;5.80;99.90;;;;;;4967731;28;20485;-84
2022/01/23 00:53:52;;;;;;;26.10;17.35;;;5.90;99.90;;;;;;4950241;28;20418;-83
2022/01/23 00:56:18;;;;;;;25.45;16.58;;;5.90;99.90;;;;;;4967210;28;20399;-83
2022/01/23 00:58:44;;;;;;;28.23;17.42;;;5.90;99.90;;;;;;4968048;28;20903;-83
2022/01/23 01:01:12;;;;;;;27.00;16.70;;;5.80;99.90;;;;;;4960079;28;20407;-83
2022/01/23 01:03:38;;;;;;;27.15;17.33;;;5.80;99.90;;;;;;4967757;28;20375;-84
2022/01/23 01:06:05;;;;;;;30.40;17.83;;;5.80;99.90;;;;;;4931454;28;20744;-83
2022/01/23 01:08:31;;;;;;;28.38;18.15;;;5.70;99.90;;;;;;4948037;28;20909;-84
2022/01/23 01:13:53;;;;;;;30.00;18.38;;;5.80;99.90;;;;;;4948684;29;20770;-84
2022/01/23 01:33:06;;;;;;;34.13;21.88;;;5.80;99.90;;;;;;4953158;28;20406;-84
2022/01/23 01:35:26;;;;;;;34.60;21.50;;;5.80;99.90;;;;;;4952822;28;20892;-83
2022/01/23 01:37:52;;;;;;;35.40;21.10;;;5.80;99.90;;;;;;4966719;28;20525;-83
2022/01/23 01:40:19;;;;;;;35.42;22.20;;;5.70;99.90;;;;;;4949908;28;20553;-83
2022/01/23 01:42:45;;;;;;;35.78;22.33;;;5.80;99.90;;;;;;4950159;28;20383;-83
2022/01/23 01:45:12;;;;;;;38.33;21.77;;;5.70;99.90;;;;;;4949318;28;20394;-83
2022/01/23 01:47:37;;;;;;;37.45;22.85;;;5.70;99.90;;;;;;4966763;28;20776;-84
2022/01/23 01:50:05;;;;;;;36.67;21.85;;;5.70;99.90;;;;;;4967678;28;20409;-84
2022/01/23 01:52:33;;;;;;;39.20;23.13;;;5.70;99.90;;;;;;4950019;28;20395;-82
2022/01/23 01:55:03;;;;;;;41.15;23.27;;;5.70;99.90;;;;;;4949040;28;20915;-84
2022/01/23 01:57:35;;;;;;;40.45;22.77;;;5.60;99.90;;;;;;4949534;28;20464;-83
2022/01/23 02:08:46;;;;;;;40.55;23.88;;;5.60;99.90;;;;;;4970398;28;20479;-83
2022/01/23 02:11:15;;;;;;;38.58;23.05;;;5.50;99.90;;;;;;4971070;28;20406;-84
2022/01/23 02:24:46;;;;;;;34.38;20.85;;;5.40;99.90;;;;;;4970492;28;20429;-84
2022/01/23 02:51:56;;;;;;;35.47;20.73;;;5.40;99.90;;;;;;4958107;28;20437;-82
2022/01/23 02:55:11;;;;;;;33.42;20.40;;;5.50;99.90;;;;;;4952091;28;20482;-83
2022/01/23 02:57:11;;;;;;;34.15;20.55;;;5.40;99.90;;;;;;4974109;28;20399;-83
2022/01/23 02:59:38;;;;;;;34.25;20.17;;;5.50;99.90;;;;;;4969658;28;20391;-83
2022/01/23 03:02:26;;;;;;;36.47;21.60;;;5.60;99.90;;;;;;4969223;28;20908;-82
2022/01/23 03:04:53;;;;;;;35.35;21.13;;;5.50;99.90;;;;;;4968998;28;20398;-82
2022/01/23 03:07:38;;;;;;;40.30;21.95;;;5.50;99.90;;;;;;4952227;28;20406;-83
2022/01/23 03:10:16;;;;;;;36.58;21.63;;;5.50;99.90;;;;;;4951278;28;20432;-83
2022/01/23 03:24:14;;;;;;;32.17;18.90;;;5.60;99.90;;;;;;4969025;28;20469;-83
2022/01/23 03:29:23;;;;;;;30.70;19.02;;;5.50;99.90;;;;;;4968942;28;20418;-81
2022/01/23 03:34:19;;;;;;;28.80;17.73;;;5.50;99.90;;;;;;4968346;28;20730;-83
2022/01/23 03:36:45;;;;;;;30.70;18.77;;;5.60;99.90;;;;;;4951764;28;20785;-83
2022/01/23 03:39:11;;;;;;;26.07;17.53;;;5.60;99.90;;;;;;4951370;28;20814;-83
2022/01/23 03:41:41;;;;;;;24.48;16.80;;;5.60;99.90;;;;;;4968799;28;20437;-83
2022/01/23 03:44:09;;;;;;;26.42;17.30;;;5.60;99.90;;;;;;4951846;28;20445;-83
2022/01/23 03:51:55;;;;;;;26.77;16.95;;;5.50;99.90;;;;;;4969344;28;20406;-83
2022/01/23 03:54:22;;;;;;;24.75;16.67;;;5.50;99.90;;;;;;4968545;28;20394;-84
2022/01/23 03:56:48;;;;;;;26.33;16.70;;;5.50;99.90;;;;;;4951205;28;20418;-83
2022/01/23 03:59:14;;;;;;;26.10;17.23;;;5.40;99.90;;;;;;4950517;28;20413;-84
2022/01/23 04:01:39;;;;;;;25.20;16.67;;;5.30;99.90;;;;;;4951012;28;20497;-84
2022/01/23 04:04:18;;;;;;;23.00;16.02;;;5.40;99.90;;;;;;4968165;28;20822;-84
2022/01/23 04:06:44;;;;;;;27.95;16.63;;;5.40;99.90;;;;;;4951413;28;20398;-83
2022/01/23 04:09:10;;;;;;;28.67;17.83;;;5.40;99.90;;;;;;4967812;28;20410;-83
2022/01/23 04:11:35;;;;;;;25.20;16.70;;;5.40;99.90;;;;;;4951198;28;20391;-83
2022/01/23 04:14:06;;;;;;;26.87;16.73;;;5.40;99.90;;;;;;4968684;28;21250;-83
2022/01/23 04:17:18;;;;;;;27.30;17.10;;;5.40;99.90;;;;;;4951149;28;20915;-82
2022/01/23 04:59:52;;;;;;;26.23;17.70;;;5.50;99.90;;;;;;4967964;28;20760;-83
2022/01/23 05:05:27;;;;;;;26.30;18.55;;;5.60;99.90;;;;;;4908404;29;20847;-84
2022/01/23 05:07:55;;;;;;;29.02;19.83;;;5.60;99.90;;;;;;4907421;29;20427;-84
2022/01/23 05:10:21;;;;;;;28.38;20.08;;;5.50;99.90;;;;;;4931080;28;20425;-84
2022/01/23 05:12:46;;;;;;;29.00;20.13;;;5.60;99.90;;;;;;4950343;28;20882;-83
2022/01/23 05:15:12;;;;;;;29.45;20.45;;;5.60;99.90;;;;;;4967454;28;20391;-83
2022/01/23 05:17:38;;;;;;;29.85;20.60;;;5.60;99.90;;;;;;4950407;28;20516;-83
2022/01/23 05:20:05;;;;;;;29.98;20.63;;;5.60;99.90;;;;;;4950340;28;20413;-83
2022/01/23 05:22:39;;;;;;;31.67;21.48;;;5.50;99.90;;;;;;4981913;28;20414;-83
2022/01/23 05:27:40;;;;;;;33.72;22.08;;;5.60;99.90;;;;;;4967042;28;20454;-84
2022/01/23 05:30:06;;;;;;;31.00;21.43;;;5.60;99.90;;;;;;4950260;28;20438;-83
2022/01/23 05:32:42;;;;;;;34.10;21.48;;;5.60;99.90;;;;;;4967158;28;20468;-83
2022/01/23 05:35:10;;;;;;;28.88;20.65;;;5.60;99.90;;;;;;4950615;28;20402;-84
2022/01/23 05:37:37;;;;;;;29.93;20.27;;;5.60;99.90;;;;;;4966232;28;20435;-84
2022/01/23 05:40:08;;;;;;;31.73;21.02;;;5.60;99.90;;;;;;4949486;28;20402;-83
2022/01/23 05:42:34;;;;;;;32.70;22.20;;;5.70;99.90;;;;;;4967000;28;20413;-83
2022/01/23 05:44:59;;;;;;;32.33;20.95;;;5.60;99.90;;;;;;4949909;28;20382;-84
2022/01/23 05:47:26;;;;;;;28.08;20.48;;;5.60;99.90;;;;;;4949696;28;20912;-83
2022/01/23 05:49:52;;;;;;;28.37;20.17;;;5.70;99.90;;;;;;4949643;28;20391;-83
2022/01/23 05:52:17;;;;;;;29.53;19.77;;;5.70;99.90;;;;;;4949340;28;20399;-84
2022/01/23 05:54:43;;;;;;;30.87;21.23;;;5.70;99.90;;;;;;4949545;28;20530;-82
2022/01/23 05:57:08;;;;;;;29.42;20.13;;;5.60;99.90;;;;;;4967067;28;21247;-84
2022/01/23 05:59:34;;;;;;;28.13;19.83;;;5.60;99.90;;;;;;4966793;28;20390;-83
2022/01/23 06:02:00;;;;;;;27.90;19.17;;;5.70;99.90;;;;;;4950480;28;20382;-84
2022/01/23 06:04:27;;;;;;;28.33;19.57;;;5.70;99.90;;;;;;4966793;28;20395;-83
2022/01/23 06:06:55;;;;;;;27.83;18.83;;;5.70;99.90;;;;;;4967094;28;20887;-83
2022/01/23 06:09:22;;;;;;;28.10;19.02;;;5.70;99.90;;;;;;4960241;28;20418;-83
2022/01/23 06:11:48;;;;;;;26.02;18.42;;;5.70;99.90;;;;;;4949352;28;20410;-85
2022/01/23 06:14:13;;;;;;;26.80;18.83;;;5.70;99.90;;;;;;4967061;28;20383;-83
2022/01/23 06:16:40;;;;;;;27.00;18.27;;;5.70;99.90;;;;;;4967259;28;20399;-83
2022/01/23 06:19:05;;;;;;;27.23;17.98;;;5.80;99.90;;;;;;4949845;28;20402;-84
2022/01/23 06:21:32;;;;;;;23.85;17.15;;;5.70;99.90;;;;;;4949132;28;20404;-83
2022/01/23 06:26:43;;;;;;;24.70;17.42;;;5.80;99.90;;;;;;4966689;28;20822;-83
2022/01/23 06:29:09;;;;;;;25.60;18.20;;;5.70;99.90;;;;;;4949654;28;20407;-83
2022/01/23 06:31:35;;;;;;;26.92;17.85;;;5.80;99.90;;;;;;4950033;28;20402;-83
2022/01/23 06:34:01;;;;;;;25.77;18.50;;;5.80;99.90;;;;;;4966586;28;20395;-84
2022/01/23 06:36:27;;;;;;;25.67;17.30;;;5.80;99.90;;;;;;4966727;28;20904;-84
2022/01/23 06:38:53;;;;;;;25.63;17.73;;;5.80;99.90;;;;;;4966553;28;20406;-82
2022/01/23 06:41:18;;;;;;;27.07;17.90;;;5.80;99.90;;;;;;4949498;28;20478;-84
2022/01/23 06:43:44;;;;;;;29.23;17.50;;;5.70;99.90;;;;;;4966564;28;20916;-84
2022/01/23 06:46:09;;;;;;;25.10;17.53;;;5.70;99.90;;;;;;4949333;28;20397;-84
2022/01/23 06:48:35;;;;;;;26.40;17.47;;;5.80;99.90;;;;;;4949048;28;20479;-84
2022/01/23 06:51:02;;;;;;;25.65;16.48;;;5.70;99.90;;;;;;4951918;28;20387;-83
2022/01/23 06:53:28;;;;;;;24.17;17.20;;;5.70;99.90;;;;;;4970071;28;20498;-83
2022/01/23 06:55:53;;;;;;;25.80;17.25;;;5.70;99.90;;;;;;4951661;28;20486;-84
2022/01/23 06:58:19;;;;;;;24.48;17.10;;;5.70;99.90;;;;;;4951941;28;20411;-83
2022/01/23 07:00:45;;;;;;;25.00;16.60;;;5.70;99.90;;;;;;4954752;28;20417;-83
2022/01/23 07:03:12;;;;;;;25.50;17.37;;;5.70;99.90;;;;;;4972982;28;20406;-84
2022/01/23 07:05:37;;;;;;;26.83;16.63;;;5.70;99.90;;;;;;4952197;28;20395;-83
2022/01/23 07:08:04;;;;;;;25.60;16.57;;;5.60;99.90;;;;;;4968456;28;20425;-84
2022/01/23 07:10:29;;;;;;;25.20;16.75;;;5.60;99.90;;;;;;4952173;28;20566;-84
2022/01/23 07:12:55;;;;;;;25.40;15.60;;;5.70;99.90;;;;;;4955446;28;20977;-84
2022/01/23 07:15:21;;;;;;;24.77;15.60;;;5.70;99.90;;;;;;4959791;28;20955;-84
2022/01/23 07:17:46;;;;;;;20.85;14.10;;;5.70;99.90;;;;;;4968655;28;20398;-84
2022/01/23 07:20:12;;;;;;;20.65;15.02;;;5.80;99.90;;;;;;4968872;28;20753;-84
2022/01/23 07:22:38;;;;;;;18.98;14.30;;;5.90;99.90;;;;;;4969217;28;20413;-84
2022/01/23 07:25:05;;;;;;;20.57;14.27;;;5.90;99.90;;;;;;4969779;28;20399;-84
2022/01/23 07:27:36;;;;;;;20.88;15.30;;;5.90;99.90;;;;;;4951248;28;20410;-84
2022/01/23 07:30:05;;;;;;;22.80;16.77;;;5.80;99.90;;;;;;4952249;28;20395;-83
2022/01/23 07:32:31;;;;;;;22.80;16.02;;;5.80;99.90;;;;;;4969331;28;20418;-84
2022/01/23 07:34:57;;;;;;;24.17;15.90;;;5.80;99.90;;;;;;4969220;28;20418;-84
2022/01/23 07:37:22;;;;;;;23.87;16.33;;;5.80;99.90;;;;;;4951826;28;20983;-84
2022/01/23 07:39:48;;;;;;;23.77;16.15;;;5.80;99.90;;;;;;4951567;28;20406;-84
2022/01/23 07:42:14;;;;;;;21.33;15.10;;;5.80;99.90;;;;;;4951775;28;20393;-84
2022/01/23 07:44:39;;;;;;;20.43;14.57;;;5.80;99.90;;;;;;4951831;28;20406;-83
2022/01/23 07:47:06;;;;;;;21.10;15.13;;;5.80;99.90;;;;;;4951688;28;20500;-84
2022/01/23 07:49:32;;;;;;;21.98;14.70;;;5.90;99.90;;;;;;4968061;28;20446;-84
2022/01/23 07:51:59;;;;;;;23.20;14.93;;;5.90;99.90;;;;;;4951802;28;20387;-83
2022/01/23 07:54:25;;;;;;;22.58;15.85;;;5.90;99.90;;;;;;4968307;28;20756;-83
2022/01/23 07:56:50;;;;;;;22.10;15.37;;;6.00;99.90;;;;;;4968859;28;20382;-84
2022/01/23 07:59:16;;;;;;;20.48;14.90;;;6.10;99.90;;;;;;4968644;28;20407;-83
2022/01/23 08:01:42;;;;;;;21.25;15.52;;;6.10;99.90;;;;;;4950248;28;20744;-84
2022/01/23 08:04:07;;;;;;;20.60;15.73;;;6.20;99.90;;;;;;4968843;28;20398;-84
2022/01/23 08:06:40;;;;;;;19.20;14.50;;;6.30;99.90;;;;;;4952093;28;20783;-83
2022/01/23 08:09:07;;;;;;;18.90;14.48;;;6.40;99.90;;;;;;4950979;28;20923;-83
2022/01/23 08:11:33;;;;;;;19.60;14.90;;;6.40;99.90;;;;;;4967666;28;20474;-83
2022/01/23 08:13:59;;;;;;;16.58;12.90;;;6.40;99.90;;;;;;4968684;28;20490;-84
2022/01/23 08:16:24;;;;;;;15.35;12.40;;;6.50;99.90;;;;;;4951182;28;20501;-84
2022/01/23 08:18:50;;;;;;;15.03;11.87;;;6.60;99.90;;;;;;4966603;28;20402;-84
2022/01/23 08:21:16;;;;;;;15.57;12.07;;;6.60;99.90;;;;;;4956161;28;20405;-83
2022/01/23 08:23:41;;;;;;;14.70;11.32;;;6.60;99.90;;;;;;4954645;28;20395;-84
2022/01/23 08:26:08;;;;;;;14.23;11.25;;;6.70;99.90;;;;;;4947413;28;21181;-83
2022/01/23 08:28:34;;;;;;;14.20;11.32;;;6.60;99.90;;;;;;4964537;28;21669;-84
2022/01/23 08:31:00;;;;;;;14.02;11.15;;;6.60;99.90;;;;;;4963438;28;20487;-84
2022/01/23 08:33:27;;;;;;;16.20;11.40;;;6.60;99.90;;;;;;4965083;28;20483;-84
2022/01/23 08:35:56;;;;;;;13.07;11.10;;;6.60;99.90;;;;;;4951156;28;20411;-84
2022/01/23 08:38:22;;;;;;;13.52;11.43;;;6.60;99.90;;;;;;4949560;28;20411;-84
2022/01/23 08:41:49;;;;;;;15.30;11.35;;;6.70;99.90;;;;;;4948712;28;20399;-84
2022/01/23 08:43:34;;;;;;;14.17;11.10;;;6.80;99.90;;;;;;4966921;28;20476;-83
2022/01/23 08:45:59;;;;;;;13.27;10.50;;;6.70;99.90;;;;;;4948573;28;20997;-84
2022/01/23 08:48:25;;;;;;;13.10;10.80;;;6.70;99.90;;;;;;4949438;28;20926;-83
2022/01/23 08:50:50;;;;;;;14.17;10.80;;;6.60;99.90;;;;;;4950777;28;20403;-84
2022/01/23 08:53:16;;;;;;;13.53;10.73;;;6.50;99.90;;;;;;4949794;28;20540;-85
2022/01/23 08:55:42;;;;;;;15.32;11.32;;;6.50;99.90;;;;;;4968306;28;20391;-83
2022/01/23 08:58:07;;;;;;;14.30;11.27;;;6.40;99.90;;;;;;4966717;28;20405;-83
2022/01/23 09:00:33;;;;;;;16.37;11.93;;;6.50;99.90;;;;;;4967843;28;20447;-84
2022/01/23 09:02:59;;;;;;;14.80;10.90;;;6.40;99.90;;;;;;4950113;28;20397;-84
2022/01/23 09:05:26;;;;;;;13.65;10.50;;;6.50;99.90;;;;;;4967007;28;20402;-84
2022/01/23 09:07:52;;;;;;;15.00;10.95;;;6.50;99.90;;;;;;4958171;28;20438;-84
2022/01/23 09:10:25;;;;;;;14.70;10.38;;;6.50;99.90;;;;;;4966533;28;20471;-84
2022/01/23 09:15:23;;;;;;;13.83;10.33;;;6.60;99.90;;;;;;4968397;28;20401;-83
2022/01/23 09:17:48;;;;;;;12.70;10.20;;;6.60;99.90;;;;;;4951808;28;20375;-83
2022/01/23 09:20:15;;;;;;;12.87;10.07;;;6.70;99.90;;;;;;4950992;28;20482;-84
2022/01/23 09:22:40;;;;;;;12.85;10.18;;;6.70;99.90;;;;;;4950252;28;20394;-84
2022/01/23 09:25:06;;;;;;;13.67;10.00;;;6.80;99.90;;;;;;4968061;28;20383;-84
2022/01/23 09:27:33;;;;;;;11.70;9.40;;;6.80;99.90;;;;;;4966239;28;20398;-84
2022/01/23 09:30:06;;;;;;;10.93;9.50;;;6.90;99.90;;;;;;4956215;28;20415;-83
2022/01/23 09:32:32;;;;;;;12.18;9.82;;;6.90;99.90;;;;;;4967361;28;20420;-84
2022/01/23 09:34:58;;;;;;;12.05;9.50;;;7.00;99.90;;;;;;4967047;28;20387;-84
2022/01/23 09:37:24;;;;;;;12.15;9.68;;;7.10;99.90;;;;;;4967584;28;20375;-85
2022/01/23 09:39:50;;;;;;;11.67;9.07;;;7.20;99.90;;;;;;4950093;28;20451;-85
2022/01/23 09:42:27;;;;;;;10.63;8.75;;;7.00;99.90;;;;;;4950068;28;20390;-84
2022/01/23 09:45:01;;;;;;;12.65;9.82;;;7.10;99.90;;;;;;4966802;28;20468;-84
2022/01/23 09:47:28;;;;;;;12.27;9.32;;;7.10;99.90;;;;;;4949762;28;20469;-84
2022/01/23 09:49:55;;;;;;;13.80;9.93;;;7.00;99.90;;;;;;4950314;28;20397;-84
2022/01/23 09:52:22;;;;;;;13.10;10.00;;;7.10;99.90;;;;;;4967571;28;20390;-84
2022/01/23 09:55:01;;;;;;;11.43;9.25;;;7.10;99.90;;;;;;4967131;28;20466;-83
2022/01/23 09:57:30;;;;;;;11.52;9.75;;;7.10;99.90;;;;;;4949659;28;20424;-84
2022/01/23 09:59:57;;;;;;;13.15;10.27;;;7.10;99.90;;;;;;4948591;28;20442;-83
2022/01/23 10:02:23;;;;;;;11.90;10.13;;;7.20;99.90;;;;;;4965763;28;20453;-83
2022/01/23 10:04:54;;;;;;;11.38;9.40;;;7.20;99.90;;;;;;4960682;28;20926;-84
2022/01/23 10:07:23;;;;;;;12.43;9.45;;;7.30;99.90;;;;;;4966847;28;20977;-83
2022/01/23 10:09:54;;;;;;;10.07;8.75;;;7.40;99.90;;;;;;4949586;28;20391;-84
2022/01/23 10:12:26;;;;;;;10.50;9.10;;;7.50;99.90;;;;;;4967027;28;20467;-85
2022/01/23 10:14:56;;;;;;;10.03;8.93;;;7.50;99.90;;;;;;4948858;28;20920;-83
2022/01/23 10:17:22;;;;;;;9.18;8.18;;;7.70;99.90;;;;;;4948802;28;20391;-85
2022/01/23 10:19:50;;;;;;;9.27;8.07;;;7.60;99.90;;;;;;4948195;28;20391;-84
2022/01/23 10:22:15;;;;;;;9.30;8.15;;;7.60;99.90;;;;;;4966513;28;20402;-84
2022/01/23 10:24:42;;;;;;;9.47;8.20;;;7.80;99.90;;;;;;4964202;28;20394;-83
2022/01/23 10:27:07;;;;;;;8.50;7.60;;;7.80;99.90;;;;;;4951406;28;20387;-83
2022/01/23 10:29:37;;;;;;;7.65;6.85;;;8.00;99.90;;;;;;4968568;28;20426;-84
2022/01/23 10:32:20;;;;;;;7.25;6.47;;;8.00;99.90;;;;;;4951645;28;20899;-83
2022/01/23 10:35:00;;;;;;;7.82;6.47;;;7.90;99.90;;;;;;4968968;28;20481;-83
2022/01/23 10:37:38;;;;;;;7.60;6.80;;;8.10;99.90;;;;;;4955189;28;20402;-84
2022/01/23 10:40:10;;;;;;;7.45;6.65;;;8.20;99.90;;;;;;4968608;28;20402;-83
2022/01/23 10:48:35;;;;;;;7.43;6.05;;;8.20;99.90;;;;;;4968995;28;20410;-84
2022/01/23 10:51:26;;;;;;;6.60;5.90;;;8.00;99.90;;;;;;4967734;28;20493;-84
2022/01/23 10:54:20;;;;;;;6.13;5.53;;;8.00;99.90;;;;;;4953363;28;20379;-83
2022/01/23 10:56:49;;;;;;;5.88;5.38;;;8.00;99.90;;;;;;4967059;28;20932;-83
2022/01/23 10:59:15;;;;;;;6.07;5.47;;;8.00;99.90;;;;;;4949952;28;20482;-83
2022/01/23 11:01:58;;;;;;;5.40;4.85;;;7.90;99.90;;;;;;4968780;28;20389;-84
2022/01/23 11:04:25;;;;;;;6.18;5.43;;;8.10;99.90;;;;;;4949842;28;20409;-84
2022/01/23 11:07:00;;;;;;;5.03;4.53;;;8.00;99.90;;;;;;4951090;28;20383;-83
2022/01/23 11:09:31;;;;;;;5.13;4.63;;;8.00;99.90;;;;;;4950645;28;20510;-84
2022/01/23 11:12:03;;;;;;;5.17;4.30;;;8.00;99.90;;;;;;4966273;28;20814;-84
2022/01/23 11:17:23;;;;;;;4.72;3.95;;;8.00;99.90;;;;;;4950364;29;20958;-83
2022/01/23 11:19:58;;;;;;;3.70;3.40;;;8.10;99.90;;;;;;4948813;29;20750;-83
2022/01/23 11:22:36;;;;;;;4.38;3.70;;;8.20;99.90;;;;;;4949155;29;20462;-84
2022/01/23 11:25:07;;;;;;;5.28;3.90;;;8.20;99.90;;;;;;4949152;29;20407;-82
2022/01/23 11:27:38;;;;;;;4.27;3.87;;;8.30;99.90;;;;;;4948925;29;20443;-84
2022/01/23 11:30:06;;;;;;;4.32;3.92;;;8.30;99.90;;;;;;4957484;28;20402;-82
2022/01/23 11:32:40;;;;;;;3.85;3.42;;;8.30;99.90;;;;;;4951734;28;20391;-83
2022/01/23 11:35:14;;;;;;;4.65;3.70;;;8.40;99.90;;;;;;4952379;28;20391;-83
2022/01/23 11:37:51;;;;;;;4.70;4.13;;;8.20;99.90;;;;;;4968442;28;20399;-84
2022/01/23 11:40:39;;;;;;;4.05;3.63;;;8.20;99.90;;;;;;4952034;28;21148;-82
2022/01/23 11:53:57;;;;;;;2.60;2.40;;;8.20;99.90;;;;;;4967870;28;20876;-83
2022/01/23 11:56:26;;;;;;;2.55;2.25;;;8.20;99.90;;;;;;4951972;28;20452;-82
2022/01/23 11:59:17;;;;;;;2.42;2.22;;;8.20;99.90;;;;;;4953807;28;20391;-82
2022/01/23 12:01:47;;;;;;;2.90;2.17;;;8.20;99.90;;;;;;4943239;28;20476;-82
2022/01/23 12:04:19;;;;;;;2.30;2.10;;;8.20;99.90;;;;;;4970214;28;20386;-82
2022/01/23 12:07:11;;;;;;;2.40;2.20;;;8.00;99.90;;;;;;4968912;28;20752;-83
2022/01/23 12:09:39;;;;;;;3.08;2.40;;;7.90;99.90;;;;;;4968397;28;20510;-82
2022/01/23 12:18:29;;;;;;;3.47;2.88;;;8.00;99.90;;;;;;4969396;28;20390;-83
2022/01/23 12:20:56;;;;;;;3.93;3.57;;;7.90;99.90;;;;;;4968770;28;20382;-84
2022/01/23 12:23:22;;;;;;;3.90;3.40;;;8.00;99.90;;;;;;4968683;28;20390;-84
2022/01/23 12:25:57;;;;;;;6.00;4.00;;;7.90;99.90;;;;;;4951002;28;20879;-83
2022/01/23 12:28:31;;;;;;;4.47;3.63;;;7.80;99.90;;;;;;4936818;28;20445;-83
2022/01/23 12:30:59;;;;;;;4.22;3.33;;;7.80;99.90;;;;;;4950665;28;20895;-84
2022/01/23 12:33:29;;;;;;;4.88;3.88;;;7.70;99.90;;;;;;4951180;28;20384;-84
2022/01/23 12:36:19;;;;;;;3.80;3.30;;;7.60;99.90;;;;;;4951040;28;20393;-83
2022/01/23 12:38:57;;;;;;;3.15;2.85;;;7.60;99.90;;;;;;4951442;28;20391;-83
2022/01/23 12:41:23;;;;;;;3.17;2.88;;;7.80;99.90;;;;;;4950796;28;21349;-83
2022/01/23 12:43:59;;;;;;;2.75;2.55;;;7.70;99.90;;;;;;4968404;28;20394;-84
2022/01/23 12:46:27;;;;;;;3.17;2.60;;;7.90;99.90;;;;;;4951006;28;20399;-84
2022/01/23 12:48:54;;;;;;;2.80;2.60;;;8.00;99.90;;;;;;4950598;28;20734;-84
2022/01/23 12:51:19;;;;;;;2.72;2.13;;;8.00;99.90;;;;;;4950894;28;20390;-84
2022/01/23 12:53:51;;;;;;;2.95;2.40;;;8.00;99.90;;;;;;4950919;28;20382;-83
2022/01/23 12:56:22;;;;;;;2.63;2.28;;;8.20;99.90;;;;;;4951154;28;20583;-84
2022/01/23 12:58:54;;;;;;;2.50;2.30;;;8.20;99.90;;;;;;4950810;28;20379;-83
2022/01/23 13:01:22;;;;;;;2.60;2.40;;;8.20;99.90;;;;;;4950292;28;20955;-84
2022/01/23 13:04:00;;;;;;;4.28;3.10;;;8.10;99.90;;;;;;4949528;28;20383;-84
2022/01/23 13:06:32;;;;;;;8.80;6.75;;;8.20;99.90;;;;;;4948205;28;20481;-83
2022/01/23 13:09:47;;;;;;;3.20;2.78;;;8.10;99.90;;;;;;4946603;28;20923;-84
2022/01/23 13:32:43;;;;;;;3.60;2.60;;;7.60;99.90;;;;;;4964950;28;20395;-84
2022/01/23 13:35:12;;;;;;;3.22;2.15;;;7.70;99.90;;;;;;4965748;28;20399;-83
2022/01/23 13:37:45;;;;;;;2.60;2.40;;;7.70;99.90;;;;;;4964285;28;20391;-84
2022/01/23 13:40:14;;;;;;;2.50;2.30;;;7.70;99.90;;;;;;4950511;28;20402;-83
2022/01/23 14:00:12;;;;;;;2.40;2.20;;;8.20;99.90;;;;;;4966120;28;20401;-83
2022/01/23 14:02:36;;;;;;;2.47;2.28;;;8.20;99.90;;;;;;4969879;28;20390;-84
2022/01/23 14:05:26;;;;;;;2.60;2.08;;;8.20;99.90;;;;;;4971425;28;20378;-83
2022/01/23 14:07:58;;;;;;;3.33;2.25;;;8.20;99.90;;;;;;4953716;28;20506;-83
2022/01/23 14:10:38;;;;;;;2.42;2.22;;;8.20;99.90;;;;;;4952521;28;20398;-83
2022/01/23 14:13:16;;;;;;;2.45;2.25;;;8.10;99.90;;;;;;4949812;28;20433;-82
2022/01/23 14:15:48;;;;;;;2.53;2.30;;;8.00;99.90;;;;;;4966608;28;20740;-82
2022/01/23 14:18:20;;;;;;;2.85;2.40;;;8.10;99.90;;;;;;4951289;28;20896;-82
2022/01/23 14:21:02;;;;;;;3.30;3.00;;;7.90;99.90;;;;;;4968413;28;20861;-83
2022/01/23 14:23:28;;;;;;;2.97;2.67;;;7.80;99.90;;;;;;4951949;28;20449;-83
2022/01/23 14:25:57;;;;;;;2.75;2.55;;;7.80;99.90;;;;;;4952714;28;20485;-83
2022/01/23 14:28:28;;;;;;;2.88;2.65;;;7.70;99.90;;;;;;4969791;28;20468;-84
2022/01/23 14:30:59;;;;;;;3.45;3.00;;;7.60;99.90;;;;;;4961865;28;20860;-83
2022/01/23 14:33:33;;;;;;;3.40;3.10;;;7.50;99.90;;;;;;4965852;28;20414;-82
2022/01/23 14:36:11;;;;;;;3.47;3.00;;;7.50;99.90;;;;;;4957160;28;20383;-83
2022/01/23 14:38:38;;;;;;;4.18;3.72;;;7.60;99.90;;;;;;4953796;28;20436;-83
2022/01/23 14:41:09;;;;;;;10.15;9.18;;;7.50;99.90;;;;;;4951788;28;20437;-83
2022/01/23 14:43:40;;;;;;;51.63;46.95;;;7.40;99.90;;;;;;4951445;28;20434;-83
2022/01/23 14:46:11;;;;;;;5.40;3.88;;;7.40;99.90;;;;;;4952773;28;20386;-85
2022/01/23 14:48:44;;;;;;;33.55;31.10;;;7.40;99.90;;;;;;4967259;28;20498;-84
2022/01/23 14:51:11;;;;;;;22.17;20.53;;;7.40;99.90;;;;;;4947204;28;20423;-83
2022/01/23 14:53:39;;;;;;;9.98;9.18;;;7.50;99.90;;;;;;4949865;28;20982;-82
2022/01/23 14:56:09;;;;;;;3.65;3.38;;;7.50;99.90;;;;;;4966868;28;20382;-83
2022/01/23 14:58:35;;;;;;;10.27;9.43;;;7.60;99.90;;;;;;4967433;28;20933;-82
2022/01/23 15:01:03;;;;;;;5.63;5.07;;;7.40;99.90;;;;;;4966493;28;20389;-84
2022/01/23 15:03:32;;;;;;;39.92;36.20;;;7.40;99.90;;;;;;4948761;28;20892;-83
2022/01/23 15:06:00;;;;;;;8.10;7.30;;;7.40;99.90;;;;;;4977105;28;20376;-83
2022/01/23 15:08:27;;;;;;;9.82;8.88;;;7.40;99.90;;;;;;5004649;28;20441;-83
2022/01/23 15:10:59;;;;;;;17.55;15.95;;;7.40;99.90;;;;;;4948465;28;20399;-83
2022/01/23 15:13:27;;;;;;;16.17;14.63;;;7.50;99.90;;;;;;4966611;28;20499;-83
2022/01/23 15:15:54;;;;;;;7.40;6.70;;;7.40;99.90;;;;;;4947829;28;20399;-83
2022/01/23 15:18:20;;;;;;;7.13;6.43;;;7.30;99.90;;;;;;4959172;28;20502;-82
2022/01/23 15:20:47;;;;;;;14.80;13.50;;;7.30;99.90;;;;;;4948872;28;20389;-83
2022/01/23 15:23:14;;;;;;;51.63;46.65;;;7.30;99.90;;;;;;4965474;28;20530;-84
2022/01/23 15:25:41;;;;;;;72.17;65.17;;;7.20;99.90;;;;;;4950573;28;20534;-82
2022/01/23 15:28:07;;;;;;;44.88;40.47;;;7.20;99.90;;;;;;4948522;28;20471;-83
2022/01/23 15:30:33;;;;;;;4.38;3.97;;;7.20;99.90;;;;;;4966321;28;20407;-83
2022/01/23 15:33:01;;;;;;;60.17;53.77;;;7.30;99.90;;;;;;4948145;28;20398;-83
2022/01/23 15:35:27;;;;;;;28.80;25.75;;;7.30;99.90;;;;;;4946190;28;20896;-83
2022/01/23 15:37:53;;;;;;;33.95;30.33;;;7.30;99.90;;;;;;4947374;28;20478;-83
2022/01/23 15:40:21;;;;;;;31.35;28.35;;;7.20;99.90;;;;;;4965171;28;20478;-83
2022/01/23 15:42:51;;;;;;;15.65;14.20;;;7.10;99.90;;;;;;4948090;28;20477;-82
2022/01/23 15:45:18;;;;;;;11.02;9.93;;;7.00;99.90;;;;;;4948222;28;20407;-84
2022/01/23 15:47:44;;;;;;;6.25;5.65;;;7.10;99.90;;;;;;4965604;28;20420;-83
2022/01/23 15:50:12;;;;;;;6.40;5.50;;;7.10;99.90;;;;;;4990385;28;20399;-83
2022/01/23 15:52:38;;;;;;;4.90;4.50;;;7.10;99.90;;;;;;4951292;28;20986;-83
2022/01/23 15:55:06;;;;;;;13.52;12.10;;;7.10;99.90;;;;;;4968592;28;20387;-83
2022/01/23 15:57:33;;;;;;;8.70;7.82;;;7.10;99.90;;;;;;4949715;28;20456;-82
2022/01/23 15:59:59;;;;;;;7.70;5.85;;;7.10;99.90;;;;;;4979428;28;20433;-83
2022/01/23 16:02:25;;;;;;;6.40;5.43;;;7.10;99.90;;;;;;5030707;28;20391;-83
2022/01/23 16:04:50;;;;;;;21.20;19.05;;;7.10;99.90;;;;;;4974194;28;20395;-83
2022/01/23 16:07:18;;;;;;;67.40;60.03;;;7.10;99.90;;;;;;4949265;28;20437;-83
2022/01/23 16:09:45;;;;;;;125.50;97.93;;;7.10;99.90;;;;;;4966995;28;20538;-83
2022/01/23 16:12:14;;;;;;;85.07;66.50;;;7.10;99.90;;;;;;4950555;28;20379;-83
2022/01/23 16:14:40;;;;;;;79.70;57.80;;;7.00;99.90;;;;;;4951077;28;20514;-83
2022/01/23 16:17:06;;;;;;;110.25;81.05;;;7.00;99.90;;;;;;4950006;28;20478;-83
2022/01/23 16:19:31;;;;;;;115.38;86.70;;;7.00;99.90;;;;;;5015279;28;20490;-84
2022/01/23 16:21:58;;;;;;;59.10;46.17;;;7.00;99.90;;;;;;4965843;28;20375;-84
2022/01/23 16:24:25;;;;;;;25.13;20.70;;;6.90;99.90;;;;;;4991712;28;20401;-83